createdAt,value
2023-04-08T00:01:02.091Z,68.25
2023-04-08T00:03:29.624Z,68.46
2023-04-08T00:05:56.872Z,68.45
2023-04-08T00:08:24.100Z,68.40
2023-04-08T00:10:51.229Z,68.36
2023-04-08T00:13:18.279Z,68.38
2023-04-08T00:15:46.156Z,68.51
2023-04-08T00:18:15.963Z,68.52
2023-04-08T00:20:43.875Z,68.49
2023-04-08T00:23:11.152Z,68.35
2023-04-08T00:25:38.301Z,68.35
2023-04-08T00:28:05.351Z,68.40
2023-04-08T00:30:32.514Z,68.45
2023-04-08T00:32:59.759Z,68.42
2023-04-08T00:35:27.114Z,68.19
2023-04-08T00:37:54.209Z,68.36
2023-04-08T00:40:21.391Z,68.36
2023-04-08T00:42:48.545Z,68.27
2023-04-08T00:45:16.145Z,68.31
2023-04-08T00:47:44.032Z,68.23
2023-04-08T00:50:11.883Z,68.42
2023-04-08T00:52:39.237Z,68.34
2023-04-08T00:55:06.853Z,68.31
2023-04-08T00:57:34.085Z,68.15
2023-04-08T01:00:01.478Z,68.20
2023-04-08T01:02:39.561Z,68.38
2023-04-08T01:05:13.536Z,68.27
2023-04-08T01:07:50.851Z,68.23
2023-04-08T01:10:22.375Z,68.24
2023-04-08T01:12:56.687Z,68.17
2023-04-08T01:15:27.877Z,68.20
2023-04-08T01:17:56.913Z,68.14
2023-04-08T01:20:26.172Z,68.23
2023-04-08T01:23:18.261Z,68.08
2023-04-08T01:25:52.042Z,68.21
2023-04-08T01:28:21.280Z,68.25
2023-04-08T01:30:50.141Z,68.13
2023-04-08T01:33:19.900Z,68.17
2023-04-08T01:35:47.060Z,68.04
2023-04-08T01:38:19.925Z,68.13
2023-04-08T01:40:49.811Z,68.06
2023-04-08T01:43:19.157Z,68.03
2023-04-08T01:45:48.217Z,67.99
2023-04-08T01:48:16.248Z,68.07
2023-04-08T01:50:45.115Z,68.05
2023-04-08T01:53:14.099Z,68.24
2023-04-08T01:55:43.268Z,68.02
2023-04-08T01:58:20.214Z,68.10
2023-04-08T02:00:48.485Z,68.17
2023-04-08T02:03:19.227Z,68.07
2023-04-08T02:05:46.864Z,68.07
2023-04-08T02:08:14.001Z,68.03
2023-04-08T02:10:41.259Z,68.15
2023-04-08T02:13:08.792Z,68.11
2023-04-08T02:15:42.193Z,68.17
2023-04-08T02:18:13.797Z,68.13
2023-04-08T02:20:46.711Z,68.17
2023-04-08T02:23:20.829Z,68.14
2023-04-08T02:25:48.871Z,68.20
2023-04-08T02:28:18.946Z,68.11
2023-04-08T02:30:50.970Z,68.08
2023-04-08T02:33:23.363Z,68.27
2023-04-08T02:35:56.148Z,68.04
2023-04-08T02:38:24.387Z,68.08
2023-04-08T02:40:51.846Z,68.06
2023-04-08T02:43:18.998Z,68.15
2023-04-08T02:45:46.556Z,68.30
2023-04-08T02:48:15.472Z,68.02
2023-04-08T02:50:42.564Z,68.03
2023-04-08T02:53:10.045Z,68.07
2023-04-08T02:55:37.252Z,68.10
2023-04-08T02:58:04.436Z,67.96
2023-04-08T03:00:31.885Z,67.94
2023-04-08T03:02:59.104Z,67.95
2023-04-08T03:05:27.032Z,68.15
2023-04-08T03:07:54.111Z,68.17
2023-04-08T03:10:21.306Z,67.99
2023-04-08T03:12:48.429Z,67.87
2023-04-08T03:15:15.887Z,67.91
2023-04-08T03:17:43.098Z,67.97
2023-04-08T03:20:10.895Z,68.04
2023-04-08T03:22:38.047Z,68.07
2023-04-08T03:25:05.514Z,67.98
2023-04-08T03:27:32.772Z,67.86
2023-04-08T03:29:59.969Z,67.81
2023-04-08T03:32:27.306Z,67.98
2023-04-08T03:34:54.573Z,67.99
2023-04-08T03:37:21.608Z,67.83
2023-04-08T03:39:48.790Z,67.90
2023-04-08T03:42:15.950Z,67.96
2023-04-08T03:44:43.175Z,67.99
2023-04-08T03:47:10.381Z,67.92
2023-04-08T03:49:37.634Z,68.01
2023-04-08T03:52:04.760Z,67.79
2023-04-08T03:54:31.868Z,67.92
2023-04-08T03:56:58.983Z,67.87
2023-04-08T03:59:26.120Z,67.81
2023-04-08T04:01:53.819Z,68.06
2023-04-08T04:04:21.353Z,67.99
2023-04-08T04:06:48.833Z,67.92
2023-04-08T04:09:16.983Z,67.98
2023-04-08T04:11:44.169Z,67.87
2023-04-08T04:14:11.592Z,67.95
2023-04-08T04:16:38.771Z,67.84
2023-04-08T04:19:06.204Z,67.81
2023-04-08T04:21:33.196Z,67.91
2023-04-08T04:24:00.282Z,67.76
2023-04-08T04:26:27.370Z,68.02
2023-04-08T04:28:54.398Z,67.97
2023-04-08T04:31:23.302Z,67.75
2023-04-08T04:33:50.641Z,67.84
2023-04-08T04:36:17.945Z,67.95
2023-04-08T04:38:45.084Z,68.01
2023-04-08T04:41:12.740Z,67.90
2023-04-08T04:43:39.894Z,68.01
2023-04-08T04:46:09.181Z,67.95
2023-04-08T04:48:36.671Z,67.74
2023-04-08T04:51:04.091Z,67.80
2023-04-08T04:53:31.914Z,67.91
2023-04-08T04:56:01.355Z,67.92
2023-04-08T04:58:28.908Z,68.04
2023-04-08T05:00:56.532Z,67.94
2023-04-08T05:03:23.958Z,67.91
2023-04-08T05:05:52.864Z,67.97
2023-04-08T05:08:20.763Z,67.93
2023-04-08T05:10:50.299Z,67.87
2023-04-08T05:13:24.958Z,68.06
2023-04-08T05:15:58.944Z,68.21
2023-04-08T05:18:26.147Z,68.01
2023-04-08T05:20:53.266Z,68.11
2023-04-08T05:23:20.416Z,68.25
2023-04-08T05:25:47.412Z,68.05
2023-04-08T05:28:14.406Z,68.13
2023-04-08T05:30:42.089Z,68.12
2023-04-08T05:33:09.186Z,68.05
2023-04-08T05:35:36.334Z,68.33
2023-04-08T05:38:03.573Z,68.19
2023-04-08T05:40:30.673Z,68.31
2023-04-08T05:42:57.698Z,68.21
2023-04-08T05:45:24.824Z,68.26
2023-04-08T05:47:51.918Z,68.30
2023-04-08T05:50:19.020Z,68.27
2023-04-08T05:52:46.178Z,68.27
2023-04-08T05:55:14.490Z,68.33
2023-04-08T05:57:42.141Z,68.34
2023-04-08T06:00:10.752Z,68.30
2023-04-08T06:02:38.967Z,68.43
2023-04-08T06:05:06.817Z,68.41
2023-04-08T06:07:34.665Z,68.34
2023-04-08T06:10:02.238Z,68.39
2023-04-08T06:12:29.640Z,68.36
2023-04-08T06:14:57.915Z,68.48
2023-04-08T06:17:25.043Z,68.46
2023-04-08T06:19:52.241Z,68.47
2023-04-08T06:22:19.402Z,68.32
2023-04-08T06:24:48.361Z,68.32
2023-04-08T06:27:16.120Z,68.36
2023-04-08T06:29:43.443Z,68.17
2023-04-08T06:32:11.731Z,68.19
2023-04-08T06:34:39.012Z,68.22
2023-04-08T06:37:06.573Z,68.44
2023-04-08T06:39:34.310Z,68.36
2023-04-08T06:42:01.877Z,68.26
2023-04-08T06:44:45.073Z,68.22
2023-04-08T06:47:12.167Z,68.30
2023-04-08T06:49:39.272Z,68.42
2023-04-08T06:52:07.115Z,68.26
2023-04-08T06:54:34.366Z,68.30
2023-04-08T06:57:01.460Z,68.17
2023-04-08T06:59:28.613Z,67.99
2023-04-08T07:01:56.039Z,68.08
2023-04-08T07:04:23.449Z,68.13
2023-04-08T07:06:50.499Z,68.33
2023-04-08T07:09:17.555Z,68.39
2023-04-08T07:11:44.910Z,68.23
2023-04-08T07:14:12.466Z,68.31
2023-04-08T07:16:39.461Z,68.25
2023-04-08T07:19:06.868Z,68.19
2023-04-08T07:21:33.915Z,68.00
2023-04-08T07:24:01.107Z,68.16
2023-04-08T07:26:28.758Z,68.17
2023-04-08T07:28:56.058Z,68.03
2023-04-08T07:31:23.281Z,67.99
2023-04-08T07:33:50.421Z,68.05
2023-04-08T07:36:18.546Z,68.12
2023-04-08T07:38:46.186Z,67.89
2023-04-08T07:41:13.338Z,67.87
2023-04-08T07:43:40.896Z,67.89
2023-04-08T07:46:08.060Z,68.24
2023-04-08T07:48:35.715Z,68.15
2023-04-08T07:51:11.103Z,68.05
2023-04-08T07:53:40.698Z,68.10
2023-04-08T07:56:15.788Z,67.88
2023-04-08T07:58:43.333Z,68.04
2023-04-08T08:01:22.048Z,67.99
2023-04-08T08:03:53.198Z,67.82
2023-04-08T08:06:21.870Z,67.83
2023-04-08T08:08:48.998Z,67.58
2023-04-08T08:11:16.197Z,67.51
2023-04-08T08:13:43.342Z,67.53
2023-04-08T08:16:12.113Z,67.76
2023-04-08T08:18:40.617Z,67.83
2023-04-08T08:21:08.838Z,67.81
2023-04-08T08:23:36.214Z,67.50
2023-04-08T08:26:10.757Z,67.52
2023-04-08T08:28:38.746Z,67.52
2023-04-08T08:31:06.439Z,67.56
2023-04-08T08:33:34.100Z,67.57
2023-04-08T08:36:01.765Z,67.41
2023-04-08T08:38:28.889Z,67.43
2023-04-08T08:41:01.639Z,67.59
2023-04-08T08:43:29.490Z,67.32
2023-04-08T08:45:56.642Z,67.33
2023-04-08T08:48:23.705Z,67.33
2023-04-08T08:50:51.267Z,67.37
2023-04-08T08:53:19.788Z,67.24
2023-04-08T08:56:13.575Z,67.42
2023-04-08T08:58:34.890Z,67.23
2023-04-08T09:01:01.943Z,67.23
2023-04-08T09:03:29.610Z,67.10
2023-04-08T09:06:02.351Z,66.96
2023-04-08T09:08:36.062Z,66.93
2023-04-08T09:11:16.364Z,66.98
2023-04-08T09:13:45.059Z,66.69
2023-04-08T09:16:15.196Z,66.76
2023-04-08T09:18:44.701Z,66.78
2023-04-08T09:21:13.292Z,66.84
2023-04-08T09:23:42.865Z,66.86
2023-04-08T09:26:18.451Z,66.77
2023-04-08T09:28:57.922Z,66.90
2023-04-08T09:31:27.943Z,66.67
2023-04-08T09:34:00.369Z,66.59
2023-04-08T09:36:27.665Z,66.62
2023-04-08T09:38:56.125Z,66.50
2023-04-08T09:41:26.571Z,66.54
2023-04-08T09:43:55.867Z,66.46
2023-04-08T09:46:32.443Z,66.33
2023-04-08T09:49:23.020Z,66.37
2023-04-08T09:51:58.237Z,66.36
2023-04-08T09:54:44.516Z,66.29
2023-04-08T09:57:18.070Z,66.24
2023-04-08T09:59:52.677Z,66.08
2023-04-08T10:02:30.568Z,66.01
2023-04-08T10:05:00.335Z,65.85
2023-04-08T10:07:27.617Z,66.04
2023-04-08T10:09:54.726Z,65.92
2023-04-08T10:12:22.186Z,65.94
2023-04-08T10:15:27.822Z,65.87
2023-04-08T10:18:05.724Z,65.72
2023-04-08T10:20:36.161Z,65.67
2023-04-08T10:23:09.082Z,65.75
2023-04-08T10:25:47.685Z,65.65
2023-04-08T10:28:15.364Z,65.81
2023-04-08T10:30:46.638Z,65.63
2023-04-08T10:33:16.740Z,65.65
2023-04-08T10:35:48.607Z,65.59
2023-04-08T10:38:17.742Z,65.55
2023-04-08T10:40:46.042Z,65.36
2023-04-08T10:43:14.729Z,65.42
2023-04-08T10:45:43.153Z,65.49
2023-04-08T10:48:22.578Z,65.25
2023-04-08T10:50:58.164Z,65.23
2023-04-08T10:53:28.801Z,65.04
2023-04-08T10:56:04.069Z,64.77
2023-04-08T10:58:31.302Z,64.82
2023-04-08T11:01:05.418Z,64.79
2023-04-08T11:03:37.185Z,64.73
2023-04-08T11:06:05.998Z,64.77
2023-04-08T11:08:34.056Z,64.75
2023-04-08T11:11:01.868Z,64.50
2023-04-08T11:13:29.226Z,64.37
2023-04-08T11:15:58.504Z,64.31
2023-04-08T11:18:26.256Z,64.28
2023-04-08T11:20:54.210Z,64.37
2023-04-08T11:23:23.032Z,64.12
2023-04-08T11:25:51.021Z,64.11
2023-04-08T11:28:18.515Z,64.19
2023-04-08T11:30:46.002Z,64.38
2023-04-08T11:33:13.870Z,64.20
2023-04-08T11:35:42.225Z,64.00
2023-04-08T11:38:10.769Z,64.06
2023-04-08T11:40:38.510Z,64.15
2023-04-08T11:43:15.496Z,64.15
2023-04-08T11:45:42.910Z,64.19
2023-04-08T11:48:14.206Z,64.34
2023-04-08T11:50:42.617Z,64.13
2023-04-08T11:53:25.181Z,63.97
2023-04-08T11:55:52.562Z,63.82
2023-04-08T11:58:19.661Z,63.94
2023-04-08T12:00:46.804Z,63.92
2023-04-08T12:03:14.238Z,63.72
2023-04-08T12:05:41.441Z,63.73
2023-04-08T12:08:08.501Z,63.53
2023-04-08T12:10:35.553Z,63.40
2023-04-08T12:13:02.698Z,63.46
2023-04-08T12:15:29.849Z,63.25
2023-04-08T12:17:57.020Z,63.27
2023-04-08T12:20:24.156Z,63.27
2023-04-08T12:22:51.464Z,63.37
2023-04-08T12:25:18.758Z,63.24
2023-04-08T12:27:45.810Z,63.20
2023-04-08T12:30:15.304Z,63.20
2023-04-08T12:32:46.110Z,63.07
2023-04-08T12:35:13.791Z,62.90
2023-04-08T12:37:41.198Z,62.76
2023-04-08T12:40:08.924Z,62.69
2023-04-08T12:42:36.000Z,62.67
2023-04-08T12:45:03.099Z,62.59
2023-04-08T12:47:30.464Z,62.54
2023-04-08T12:49:57.617Z,62.46
2023-04-08T12:52:24.805Z,62.47
2023-04-08T12:54:51.951Z,62.37
2023-04-08T12:57:19.104Z,62.42
2023-04-08T12:59:46.199Z,62.31
2023-04-08T13:02:13.677Z,62.39
2023-04-08T13:04:41.090Z,62.36
2023-04-08T13:07:08.255Z,62.03
2023-04-08T13:09:35.436Z,62.02
2023-04-08T13:12:02.696Z,61.94
2023-04-08T13:14:33.349Z,62.08
2023-04-08T13:17:00.414Z,62.06
2023-04-08T13:19:27.542Z,62.05
2023-04-08T13:21:54.614Z,62.13
2023-04-08T13:24:22.181Z,61.85
2023-04-08T13:26:49.660Z,61.68
2023-04-08T13:29:16.793Z,61.72
2023-04-08T13:31:46.113Z,61.57
2023-04-08T13:34:13.324Z,61.48
2023-04-08T13:36:40.615Z,61.44
2023-04-08T13:39:07.742Z,61.39
2023-04-08T13:41:35.143Z,61.46
2023-04-08T13:44:02.327Z,61.43
2023-04-08T13:46:29.721Z,61.21
2023-04-08T13:48:56.857Z,61.22
2023-04-08T13:51:29.734Z,61.25
2023-04-08T13:53:57.238Z,61.03
2023-04-08T13:56:24.324Z,60.95
2023-04-08T13:58:57.129Z,60.85
2023-04-08T14:01:25.050Z,60.72
2023-04-08T14:03:52.369Z,60.76
2023-04-08T14:06:19.474Z,60.66
2023-04-08T14:08:46.501Z,60.85
2023-04-08T14:11:13.523Z,60.67
2023-04-08T14:13:40.673Z,60.64
2023-04-08T14:16:07.717Z,60.59
2023-04-08T14:18:34.794Z,60.63
2023-04-08T14:21:02.758Z,60.68
2023-04-08T14:23:29.758Z,60.53
2023-04-08T14:25:56.818Z,60.33
2023-04-08T14:28:23.868Z,60.29
2023-04-08T14:30:51.235Z,60.41
2023-04-08T14:33:19.032Z,60.20
2023-04-08T14:35:46.128Z,59.99
2023-04-08T14:38:13.325Z,60.09
2023-04-08T14:40:40.719Z,59.90
2023-04-08T14:43:08.010Z,59.90
2023-04-08T14:45:35.082Z,59.82
2023-04-08T14:48:02.236Z,60.05
2023-04-08T14:50:30.680Z,59.88
2023-04-08T14:52:57.872Z,59.70
2023-04-08T14:55:25.977Z,59.75
2023-04-08T14:57:53.016Z,59.82
2023-04-08T15:00:20.205Z,59.57
2023-04-08T15:02:47.483Z,59.50
2023-04-08T15:05:14.646Z,59.60
2023-04-08T15:07:42.893Z,59.32
2023-04-08T15:10:10.485Z,59.33
2023-04-08T15:12:37.562Z,59.39
2023-04-08T15:15:05.150Z,59.29
2023-04-08T15:17:32.239Z,59.45
2023-04-08T15:19:59.543Z,59.22
2023-04-08T15:22:27.204Z,59.29
2023-04-08T15:24:54.268Z,59.16
2023-04-08T15:27:21.620Z,59.18
2023-04-08T15:29:48.720Z,59.08
2023-04-08T15:32:15.847Z,59.03
2023-04-08T15:34:43.011Z,59.15
2023-04-08T15:37:10.090Z,58.97
2023-04-08T15:39:37.195Z,58.93
2023-04-08T15:42:05.420Z,58.97
2023-04-08T15:44:32.822Z,58.93
2023-04-08T15:47:00.260Z,58.70
2023-04-08T15:49:27.831Z,58.66
2023-04-08T15:51:55.118Z,58.79
2023-04-08T15:54:22.256Z,58.82
2023-04-08T15:56:49.409Z,58.72
2023-04-08T15:59:16.574Z,58.76
2023-04-08T16:01:43.768Z,58.65
2023-04-08T16:04:11.269Z,58.42
2023-04-08T16:06:38.576Z,58.63
2023-04-08T16:09:06.587Z,58.52
2023-04-08T16:11:34.183Z,58.38
2023-04-08T16:14:01.957Z,58.34
2023-04-08T16:16:29.860Z,58.40
2023-04-08T16:18:57.015Z,58.26
2023-04-08T16:21:24.251Z,58.25
2023-04-08T16:23:51.895Z,58.47
2023-04-08T16:26:19.888Z,58.08
2023-04-08T16:28:47.135Z,58.15
2023-04-08T16:31:14.402Z,58.01
2023-04-08T16:33:41.775Z,58.16
2023-04-08T16:36:09.313Z,58.11
2023-04-08T16:38:36.747Z,57.94
2023-04-08T16:41:06.249Z,58.01
2023-04-08T16:43:33.403Z,57.99
2023-04-08T16:46:00.793Z,58.06
2023-04-08T16:48:27.922Z,58.11
2023-04-08T16:50:55.475Z,57.99
2023-04-08T16:53:22.502Z,57.88
2023-04-08T16:55:49.522Z,58.01
2023-04-08T16:58:16.732Z,57.88
2023-04-08T17:00:43.819Z,57.88
2023-04-08T17:03:11.029Z,57.82
2023-04-08T17:05:38.685Z,57.96
2023-04-08T17:08:06.110Z,58.00
2023-04-08T17:10:33.274Z,58.07
2023-04-08T17:13:00.510Z,58.09
2023-04-08T17:15:27.709Z,58.26
2023-04-08T17:17:54.807Z,58.20
2023-04-08T17:20:22.218Z,58.38
2023-04-08T17:22:49.309Z,58.32
2023-04-08T17:25:16.464Z,58.48
2023-04-08T17:27:43.602Z,58.30
2023-04-08T17:30:11.626Z,58.29
2023-04-08T17:32:38.971Z,58.15
2023-04-08T17:35:06.414Z,58.28
2023-04-08T17:37:33.645Z,58.35
2023-04-08T17:40:00.751Z,58.33
2023-04-08T17:42:27.847Z,58.39
2023-04-08T17:44:56.127Z,58.30
2023-04-08T17:47:23.332Z,58.51
2023-04-08T17:49:54.108Z,58.41
2023-04-08T17:52:21.202Z,58.40
2023-04-08T17:54:48.391Z,58.55
2023-04-08T17:57:16.058Z,58.47
2023-04-08T17:59:43.087Z,58.15
2023-04-08T18:02:10.495Z,58.16
2023-04-08T18:04:38.324Z,58.16
2023-04-08T18:07:05.645Z,58.18
2023-04-08T18:09:32.808Z,58.32
2023-04-08T18:12:00.132Z,58.19
2023-04-08T18:14:29.749Z,58.09
2023-04-08T18:16:56.853Z,58.17
2023-04-08T18:19:26.321Z,58.23
2023-04-08T18:21:53.499Z,58.11
2023-04-08T18:24:21.672Z,58.13
2023-04-08T18:27:01.500Z,58.21
2023-04-08T18:29:31.362Z,58.34
2023-04-08T18:31:58.501Z,58.22
2023-04-08T18:34:25.942Z,58.28
2023-04-08T18:36:53.225Z,58.22
2023-04-08T18:39:20.432Z,58.23
2023-04-08T18:41:47.482Z,58.28
2023-04-08T18:44:14.607Z,58.25
2023-04-08T18:46:42.029Z,58.23
2023-04-08T18:49:09.379Z,58.19
2023-04-08T18:51:36.507Z,58.15
2023-04-08T18:54:03.821Z,58.05
2023-04-08T18:56:31.688Z,58.24
2023-04-08T18:58:58.741Z,58.32
2023-04-08T19:01:25.968Z,58.32
2023-04-08T19:03:53.487Z,58.38
2023-04-08T19:06:22.748Z,58.38
2023-04-08T19:08:50.092Z,58.41
2023-04-08T19:11:17.171Z,58.38
2023-04-08T19:13:44.292Z,58.54
2023-04-08T19:16:11.443Z,58.35
2023-04-08T19:18:38.491Z,58.57
2023-04-08T19:21:05.735Z,58.46
2023-04-08T19:23:32.827Z,58.46
2023-04-08T19:25:59.883Z,58.49
2023-04-08T19:28:27.060Z,58.36
2023-04-08T19:30:54.150Z,58.62
2023-04-08T19:33:21.322Z,58.42
2023-04-08T19:35:49.420Z,58.46
2023-04-08T19:38:16.564Z,58.28
2023-04-08T19:40:43.695Z,58.32
2023-04-08T19:43:10.953Z,58.33
2023-04-08T19:45:37.941Z,58.50
2023-04-08T19:48:05.137Z,58.44
2023-04-08T19:50:32.227Z,58.36
2023-04-08T19:52:59.570Z,58.40
2023-04-08T19:55:26.764Z,58.33
2023-04-08T19:57:54.357Z,58.29
2023-04-08T20:00:22.140Z,58.52
2023-04-08T20:02:49.449Z,58.42
2023-04-08T20:05:17.495Z,58.38
2023-04-08T20:07:44.598Z,58.64
2023-04-08T20:10:12.538Z,58.53
2023-04-08T20:12:40.971Z,58.32
2023-04-08T20:15:23.011Z,58.68
2023-04-08T20:17:51.384Z,58.73
2023-04-08T20:20:18.703Z,58.48
2023-04-08T20:22:46.656Z,58.47
2023-04-08T20:25:13.772Z,58.52
2023-04-08T20:27:41.393Z,58.70
2023-04-08T20:30:09.475Z,58.45
2023-04-08T20:32:36.670Z,58.70
2023-04-08T20:35:04.967Z,58.60
2023-04-08T20:37:32.512Z,58.83
2023-04-08T20:39:59.673Z,58.79
2023-04-08T20:42:27.055Z,58.66
2023-04-08T20:44:54.123Z,58.77
2023-04-08T20:47:21.401Z,58.84
2023-04-08T20:49:48.539Z,58.62
2023-04-08T20:52:15.859Z,58.79
2023-04-08T20:54:42.961Z,58.89
2023-04-08T20:57:10.063Z,58.93
2023-04-08T20:59:37.128Z,58.78
2023-04-08T21:02:04.297Z,58.76
2023-04-08T21:04:31.935Z,58.92
2023-04-08T21:06:59.142Z,58.91
2023-04-08T21:09:26.262Z,58.98
2023-04-08T21:11:53.606Z,58.77
2023-04-08T21:14:20.745Z,58.88
2023-04-08T21:16:48.020Z,58.87
2023-04-08T21:19:15.780Z,59.03
2023-04-08T21:21:45.526Z,58.91
2023-04-08T21:24:13.015Z,59.00
2023-04-08T21:26:40.272Z,58.92
2023-04-08T21:29:07.345Z,59.26
2023-04-08T21:31:34.882Z,59.03
2023-04-08T21:34:02.020Z,59.10
2023-04-08T21:36:30.885Z,59.13
2023-04-08T21:38:57.957Z,59.13
2023-04-08T21:41:25.104Z,59.21
2023-04-08T21:43:52.245Z,59.12
2023-04-08T21:46:19.578Z,59.12
2023-04-08T21:48:47.563Z,59.17
2023-04-08T21:51:18.299Z,59.21
2023-04-08T21:53:45.696Z,59.15
2023-04-08T21:56:14.100Z,59.13
2023-04-08T21:58:41.219Z,59.30
2023-04-08T22:01:08.455Z,59.08
2023-04-08T22:03:35.704Z,59.36
2023-04-08T22:06:02.870Z,59.35
2023-04-08T22:08:32.478Z,59.47
2023-04-08T22:10:59.611Z,59.27
2023-04-08T22:13:27.393Z,59.44
2023-04-08T22:15:54.475Z,59.46
2023-04-08T22:18:21.591Z,59.35
2023-04-08T22:20:48.696Z,59.32
2023-04-08T22:23:15.833Z,59.35
2023-04-08T22:25:42.893Z,59.46
2023-04-08T22:28:09.985Z,59.50
2023-04-08T22:30:37.064Z,59.40
2023-04-08T22:33:04.279Z,59.49
2023-04-08T22:35:31.661Z,59.58
2023-04-08T22:37:58.810Z,59.52
2023-04-08T22:40:25.930Z,59.47
2023-04-08T22:42:53.009Z,59.60
2023-04-08T22:45:20.127Z,59.60
2023-04-08T22:47:47.341Z,59.51
2023-04-08T22:50:14.456Z,59.49
2023-04-08T22:52:42.053Z,59.57
2023-04-08T22:55:09.377Z,59.60
2023-04-08T22:57:36.704Z,59.69
2023-04-08T23:00:05.201Z,59.70
2023-04-08T23:02:32.364Z,59.66
2023-04-08T23:04:59.520Z,59.77
2023-04-08T23:07:26.591Z,59.78
2023-04-08T23:09:53.632Z,59.80
2023-04-08T23:12:20.776Z,59.67
2023-04-08T23:14:47.842Z,59.73
2023-04-08T23:17:14.827Z,59.74
2023-04-08T23:19:42.528Z,59.89
2023-04-08T23:22:09.587Z,59.89
2023-04-08T23:24:36.715Z,59.87
2023-04-08T23:27:04.006Z,59.90
2023-04-08T23:29:31.721Z,59.95
2023-04-08T23:31:58.801Z,59.81
2023-04-08T23:34:25.919Z,59.97
2023-04-08T23:36:53.123Z,59.93
2023-04-08T23:39:20.441Z,60.03
2023-04-08T23:41:47.581Z,59.98
2023-04-08T23:44:14.620Z,60.00
2023-04-08T23:46:41.695Z,59.95
2023-04-08T23:49:08.840Z,60.15
2023-04-08T23:51:38.902Z,60.07
2023-04-08T23:54:05.992Z,60.24
2023-04-08T23:56:33.054Z,60.09
2023-04-08T23:59:00.141Z,60.10
